East Aurora, New York
Current Conditions -  °F | °C
As of 11:54 PM on Monday 20 Oct 2014 (Local Time) from KBUF Reporting Station
Overcast Overcast  
Wind Chill: 51°   Ceiling: 2400
Heat Index: 51°   Visibility: 10mi
Dew Point: 46°   Wind: 10mph
Humidity: 83%   Direction: 200°SSW
Pressure: 29.81"   Gusts: NA
Location:  42.77°N, 78.61°W
Report Text: KBUF 210354Z 20009KT 10SM FEW014 BKN024 OVC028 11/08 A2981 RMK AO2 RAE47 SLP096 P0000 T01060078
Loading
Personal Weather Stations






























Interactive Weather Map
Tropical Storm Tracking
New forecast layout! Learn more

10-Day Weather Forecast

Advertisements
Track Severe Weather on mobile